Heinz Schepers — V2OM7 — position and weather

sailwx.info

Track history (hours):
 
Tides and Currents Weather Stations Pressure Air Temp Water Temp Dewpoint Dewpoint Depression Visibility Wind Speed Wind Dir Waves Ship Positions

Heinz Schepers

Last reported at 2014-Sep-30 20:32 UTC. Time now 2014-Oct-01 18:24 UTC.
Position N 34°40' E 032°22'.

Length 101 m; draft 4.9 m.

Type: Cargo ship. MMSI: 304596000.

Date/timePositionNaut miles runAvg speedWind from/ knotsBaromVisibWave heightAir tempDewpointWater temp
2014-Sep-30 20:32N 34°40' E 032°22'1313.5
2014-Sep-30 19:33N 34°36' E 032°37'1313.5
2014-Sep-30 18:34N 34°32' E 032°53'10 9.9
2014-Sep-30 17:34N 34°37' E 033°03'3 2.6
2014-Sep-30 16:33N 34°39' E 033°01'0 0.0
2014-Sep-30 15:33N 34°39' E 033°01'0 0.0
2014-Sep-30 14:33N 34°39' E 033°01'0 0.0
2014-Sep-30 13:33N 34°39' E 033°01'0 0.0
2014-Sep-30 12:33N 34°39' E 033°01'0 0.0
2014-Sep-30 11:33N 34°39' E 033°01'0 0.0
2014-Sep-30 10:33N 34°39' E 033°01'0 0.0
2014-Sep-30 09:33N 34°39' E 033°01'0 0.0
2014-Sep-30 08:33N 34°39' E 033°01'0 0.0
2014-Sep-30 07:32N 34°39' E 033°01'0 0.0
2014-Sep-30 06:32N 34°39' E 033°01'2 2.5
2014-Sep-30 05:33N 34°38' E 033°03'10 9.9
2014-Sep-30 04:33N 34°32' E 032°53'1413.5
2014-Sep-30 03:33N 34°36' E 032°37'1313.2
2014-Sep-30 02:33N 34°40' E 032°22'  
2014-Sep-23 23:20N 34°40' E 032°22'1113.9
2014-Sep-23 22:34N 34°36' E 032°34'1313.4
2014-Sep-23 21:34N 34°32' E 032°50'1111.4
2014-Sep-23 20:33N 34°34' E 033°04'5 5.3
2014-Sep-23 19:34N 34°39' E 033°01'0 0.0
2014-Sep-23 18:33N 34°39' E 033°01'0 0.0
2014-Sep-23 17:33N 34°39' E 033°01'0 0.0
2014-Sep-23 16:33N 34°39' E 033°01'0 0.0
2014-Sep-23 15:33N 34°39' E 033°01'0 0.0
2014-Sep-23 14:33N 34°39' E 033°01'0 0.0
2014-Sep-23 13:33N 34°39' E 033°01'0 0.0
2014-Sep-23 12:33N 34°39' E 033°01'0 0.0
2014-Sep-23 11:33N 34°39' E 033°01'0 0.0
2014-Sep-23 10:33N 34°39' E 033°01'0 0.0
2014-Sep-23 09:33N 34°39' E 033°01'0 0.0
2014-Sep-23 08:33N 34°39' E 033°01'0 0.0
2014-Sep-23 07:33N 34°39' E 033°01'0 0.0
2014-Sep-23 06:33N 34°39' E 033°01'0 0.0
2014-Sep-23 05:33N 34°39' E 033°01'0 0.0
2014-Sep-23 04:33N 34°39' E 033°01'2 2.1
2014-Sep-23 03:34N 34°39' E 033°04'3 3.2
2014-Sep-23 02:33N 34°36' E 033°04'1110.5
2014-Sep-23 01:33N 34°32' E 032°52'1313.2
2014-Sep-23 00:33N 34°36' E 032°36'28511.7
2014-Sep-22 00:11N 36°39' E 027°20'3 4.6
2014-Sep-21 23:33N 36°42' E 027°19'2410.8
2014-Sep-21 21:21N 37°02' E 027°04'1113.9
2014-Sep-21 20:33N 37°12' E 026°57'1413.9
2014-Sep-21 19:33N 37°24' E 026°47'1514.1
2014-Sep-21 18:30N 37°36' E 026°37'5614.0
2014-Sep-21 14:32N 38°07' E 025°39'  
Track history (hours):
 
Tides and Currents Weather Stations Pressure Air Temp Water Temp Dewpoint Dewpoint Depression Visibility Wind Speed Wind Dir Waves Ship Positions

Heinz Schepers

Last reported at 2014-Sep-30 20:32 UTC. Time now 2014-Oct-01 18:24 UTC.
Position N 34°40' E 032°22'.

Length 101 m; draft 4.9 m.

Type: Cargo ship. MMSI: 304596000.

Date/timePositionNaut miles runAvg speedWind from/ knotsBaromVisibWave heightAir tempDewpointWater temp
2014-Sep-30 20:32N 34°40' E 032°22'1313.5
2014-Sep-30 19:33N 34°36' E 032°37'1313.5
2014-Sep-30 18:34N 34°32' E 032°53'10 9.9
2014-Sep-30 17:34N 34°37' E 033°03'3 2.6
2014-Sep-30 16:33N 34°39' E 033°01'0 0.0
2014-Sep-30 15:33N 34°39' E 033°01'0 0.0
2014-Sep-30 14:33N 34°39' E 033°01'0 0.0
2014-Sep-30 13:33N 34°39' E 033°01'0 0.0
2014-Sep-30 12:33N 34°39' E 033°01'0 0.0
2014-Sep-30 11:33N 34°39' E 033°01'0 0.0
2014-Sep-30 10:33N 34°39' E 033°01'0 0.0
2014-Sep-30 09:33N 34°39' E 033°01'0 0.0
2014-Sep-30 08:33N 34°39' E 033°01'0 0.0
2014-Sep-30 07:32N 34°39' E 033°01'0 0.0
2014-Sep-30 06:32N 34°39' E 033°01'2 2.5
2014-Sep-30 05:33N 34°38' E 033°03'10 9.9
2014-Sep-30 04:33N 34°32' E 032°53'1413.5
2014-Sep-30 03:33N 34°36' E 032°37'1313.2
2014-Sep-30 02:33N 34°40' E 032°22'  
2014-Sep-23 23:20N 34°40' E 032°22'1113.9
2014-Sep-23 22:34N 34°36' E 032°34'1313.4
2014-Sep-23 21:34N 34°32' E 032°50'1111.4
2014-Sep-23 20:33N 34°34' E 033°04'5 5.3
2014-Sep-23 19:34N 34°39' E 033°01'0 0.0
2014-Sep-23 18:33N 34°39' E 033°01'0 0.0
2014-Sep-23 17:33N 34°39' E 033°01'0 0.0
2014-Sep-23 16:33N 34°39' E 033°01'0 0.0
2014-Sep-23 15:33N 34°39' E 033°01'0 0.0
2014-Sep-23 14:33N 34°39' E 033°01'0 0.0
2014-Sep-23 13:33N 34°39' E 033°01'0 0.0
2014-Sep-23 12:33N 34°39' E 033°01'0 0.0
2014-Sep-23 11:33N 34°39' E 033°01'0 0.0
2014-Sep-23 10:33N 34°39' E 033°01'0 0.0
2014-Sep-23 09:33N 34°39' E 033°01'0 0.0
2014-Sep-23 08:33N 34°39' E 033°01'0 0.0
2014-Sep-23 07:33N 34°39' E 033°01'0 0.0
2014-Sep-23 06:33N 34°39' E 033°01'0 0.0
2014-Sep-23 05:33N 34°39' E 033°01'0 0.0
2014-Sep-23 04:33N 34°39' E 033°01'2 2.1
2014-Sep-23 03:34N 34°39' E 033°04'3 3.2
2014-Sep-23 02:33N 34°36' E 033°04'1110.5
2014-Sep-23 01:33N 34°32' E 032°52'1313.2
2014-Sep-23 00:33N 34°36' E 032°36'28511.7
2014-Sep-22 00:11N 36°39' E 027°20'3 4.6
2014-Sep-21 23:33N 36°42' E 027°19'2410.8
2014-Sep-21 21:21N 37°02' E 027°04'1113.9
2014-Sep-21 20:33N 37°12' E 026°57'1413.9
2014-Sep-21 19:33N 37°24' E 026°47'1514.1
2014-Sep-21 18:30N 37°36' E 026°37'5614.0
2014-Sep-21 14:32N 38°07' E 025°39'  

Dump ship's entire track history